sensor_id;sensor_type;location;lat;lon;timestamp;pressure;altitude;pressure_sealevel;temperature;humidity
47054;BME280;32811;52.382;5.270;2023-03-14T00:01:11;98827.81;;;8.96;100.00
47054;BME280;32811;52.382;5.270;2023-03-14T00:03:38;98831.97;;;9.00;100.00
47054;BME280;32811;52.382;5.270;2023-03-14T00:06:05;98830.41;;;8.92;100.00
47054;BME280;32811;52.382;5.270;2023-03-14T00:08:32;98833.81;;;8.94;100.00
47054;BME280;32811;52.382;5.270;2023-03-14T00:11:11;98838.00;;;9.00;100.00
47054;BME280;32811;52.382;5.270;2023-03-14T00:13:38;98835.53;;;8.96;100.00
47054;BME280;32811;52.382;5.270;2023-03-14T00:16:07;98829.50;;;8.95;100.00
47054;BME280;32811;52.382;5.270;2023-03-14T00:18:34;98833.66;;;9.02;100.00
47054;BME280;32811;52.382;5.270;2023-03-14T00:21:02;98838.81;;;9.02;100.00
47054;BME280;32811;52.382;5.270;2023-03-14T00:23:30;98843.69;;;9.13;100.00
47054;BME280;32811;52.382;5.270;2023-03-14T00:26:01;98834.09;;;9.21;100.00
47054;BME280;32811;52.382;5.270;2023-03-14T00:28:28;98835.97;;;9.14;100.00
47054;BME280;32811;52.382;5.270;2023-03-14T00:30:55;98823.81;;;9.20;100.00
47054;BME280;32811;52.382;5.270;2023-03-14T00:33:22;98832.25;;;9.26;100.00
47054;BME280;32811;52.382;5.270;2023-03-14T00:36:00;98835.63;;;9.28;100.00
47054;BME280;32811;52.382;5.270;2023-03-14T00:38:30;98820.34;;;9.22;100.00
47054;BME280;32811;52.382;5.270;2023-03-14T00:40:56;98827.06;;;9.28;100.00
47054;BME280;32811;52.382;5.270;2023-03-14T00:43:23;98832.22;;;9.28;100.00
47054;BME280;32811;52.382;5.270;2023-03-14T00:45:51;98828.72;;;9.30;100.00
47054;BME280;32811;52.382;5.270;2023-03-14T00:48:19;98822.13;;;9.20;100.00
47054;BME280;32811;52.382;5.270;2023-03-14T00:50:46;98827.91;;;9.28;100.00
47054;BME280;32811;52.382;5.270;2023-03-14T00:53:13;98829.03;;;9.18;100.00
47054;BME280;32811;52.382;5.270;2023-03-14T00:55:41;98846.03;;;9.24;100.00
47054;BME280;32811;52.382;5.270;2023-03-14T00:58:10;98828.84;;;9.26;100.00
47054;BME280;32811;52.382;5.270;2023-03-14T01:00:36;98832.31;;;9.25;100.00
47054;BME280;32811;52.382;5.270;2023-03-14T01:03:04;98837.28;;;9.31;100.00
47054;BME280;32811;52.382;5.270;2023-03-14T01:05:31;98816.75;;;9.29;100.00
47054;BME280;32811;52.382;5.270;2023-03-14T01:07:58;98833.94;;;9.29;100.00
47054;BME280;32811;52.382;5.270;2023-03-14T01:10:25;98827.19;;;9.23;100.00
47054;BME280;32811;52.382;5.270;2023-03-14T01:12:52;98823.88;;;9.18;100.00
47054;BME280;32811;52.382;5.270;2023-03-14T01:15:19;98830.56;;;9.27;100.00
47054;BME280;32811;52.382;5.270;2023-03-14T01:17:46;98821.00;;;9.30;100.00
47054;BME280;32811;52.382;5.270;2023-03-14T01:20:14;98820.16;;;9.30;100.00
47054;BME280;32811;52.382;5.270;2023-03-14T01:22:43;98828.91;;;9.24;100.00
47054;BME280;32811;52.382;5.270;2023-03-14T01:25:13;98829.03;;;9.18;100.00
47054;BME280;32811;52.382;5.270;2023-03-14T01:27:40;98828.06;;;9.22;100.00
47054;BME280;32811;52.382;5.270;2023-03-14T01:30:08;98830.88;;;9.11;100.00
47054;BME280;32811;52.382;5.270;2023-03-14T01:32:35;98844.06;;;8.98;100.00
47054;BME280;32811;52.382;5.270;2023-03-14T01:35:03;98850.09;;;8.95;100.00
47054;BME280;32811;52.382;5.270;2023-03-14T01:37:29;98841.84;;;8.79;100.00
47054;BME280;32811;52.382;5.270;2023-03-14T01:39:56;98846.41;;;8.66;100.00
47054;BME280;32811;52.382;5.270;2023-03-14T01:42:22;98839.72;;;8.58;100.00
47054;BME280;32811;52.382;5.270;2023-03-14T01:47:17;98839.09;;;8.45;100.00
47054;BME280;32811;52.382;5.270;2023-03-14T01:49:46;98838.19;;;8.49;100.00
47054;BME280;32811;52.382;5.270;2023-03-14T01:52:25;98839.19;;;8.42;100.00
47054;BME280;32811;52.382;5.270;2023-03-14T01:55:17;98839.91;;;8.48;100.00
47054;BME280;32811;52.382;5.270;2023-03-14T01:57:58;98835.69;;;8.44;100.00
47054;BME280;32811;52.382;5.270;2023-03-14T02:00:27;98828.97;;;8.36;100.00
47054;BME280;32811;52.382;5.270;2023-03-14T02:02:58;98836.63;;;8.40;100.00
47054;BME280;32811;52.382;5.270;2023-03-14T02:05:32;98821.19;;;8.42;100.00
47054;BME280;32811;52.382;5.270;2023-03-14T02:08:02;98826.31;;;8.42;100.00
47054;BME280;32811;52.382;5.270;2023-03-14T02:10:31;98825.44;;;8.43;100.00
47054;BME280;32811;52.382;5.270;2023-03-14T02:13:01;98822.88;;;8.41;100.00
47054;BME280;32811;52.382;5.270;2023-03-14T02:15:29;98809.25;;;8.36;100.00
47054;BME280;32811;52.382;5.270;2023-03-14T02:17:56;98809.19;;;8.39;100.00
47054;BME280;32811;52.382;5.270;2023-03-14T02:22:56;98803.97;;;8.45;100.00
47054;BME280;32811;52.382;5.270;2023-03-14T02:28:11;98797.13;;;8.44;100.00
47054;BME280;32811;52.382;5.270;2023-03-14T02:30:38;98796.31;;;8.42;100.00
47054;BME280;32811;52.382;5.270;2023-03-14T02:33:08;98745.31;;;8.19;100.00
47054;BME280;32811;52.382;5.270;2023-03-14T02:35:39;98796.13;;;8.51;100.00
47054;BME280;32811;52.382;5.270;2023-03-14T02:38:24;98791.72;;;8.57;100.00
47054;BME280;32811;52.382;5.270;2023-03-14T02:40:52;98791.06;;;8.48;100.00
47054;BME280;32811;52.382;5.270;2023-03-14T02:43:19;98774.94;;;8.37;100.00
47054;BME280;32811;52.382;5.270;2023-03-14T02:45:47;98779.34;;;8.32;100.00
47054;BME280;32811;52.382;5.270;2023-03-14T02:48:48;98801.41;;;8.44;100.00
47054;BME280;32811;52.382;5.270;2023-03-14T02:51:16;98787.84;;;8.36;100.00
47054;BME280;32811;52.382;5.270;2023-03-14T02:53:43;98761.59;;;8.20;100.00
47054;BME280;32811;52.382;5.270;2023-03-14T02:56:10;98782.72;;;8.36;100.00
47054;BME280;32811;52.382;5.270;2023-03-14T02:58:37;98780.16;;;8.34;100.00
47054;BME280;32811;52.382;5.270;2023-03-14T03:01:04;98781.00;;;8.35;100.00
47054;BME280;32811;52.382;5.270;2023-03-14T03:03:31;98798.97;;;8.36;100.00
47054;BME280;32811;52.382;5.270;2023-03-14T03:05:58;98787.88;;;8.34;100.00
47054;BME280;32811;52.382;5.270;2023-03-14T03:08:26;98783.66;;;8.30;100.00
47054;BME280;32811;52.382;5.270;2023-03-14T03:10:53;98791.13;;;8.44;100.00
47054;BME280;32811;52.382;5.270;2023-03-14T03:13:20;98779.31;;;8.34;100.00
47054;BME280;32811;52.382;5.270;2023-03-14T03:15:47;98764.94;;;8.23;100.00
47054;BME280;32811;52.382;5.270;2023-03-14T03:18:13;98781.25;;;8.22;100.00
47054;BME280;32811;52.382;5.270;2023-03-14T03:20:40;98755.09;;;8.02;100.00
47054;BME280;32811;52.382;5.270;2023-03-14T03:23:06;98777.03;;;8.18;100.00
47054;BME280;32811;52.382;5.270;2023-03-14T03:25:33;98735.47;;;7.98;100.00
47054;BME280;32811;52.382;5.270;2023-03-14T03:28:00;98759.97;;;8.14;100.00
47054;BME280;32811;52.382;5.270;2023-03-14T03:30:27;98749.88;;;8.06;100.00
47054;BME280;32811;52.382;5.270;2023-03-14T03:32:54;98757.47;;;8.11;100.00
47054;BME280;32811;52.382;5.270;2023-03-14T03:35:20;98736.19;;;8.04;100.00
47054;BME280;32811;52.382;5.270;2023-03-14T03:37:47;98743.81;;;8.09;100.00
47054;BME280;32811;52.382;5.270;2023-03-14T03:40:13;98753.25;;;8.08;100.00
47054;BME280;32811;52.382;5.270;2023-03-14T03:42:40;98744.66;;;8.09;100.00
47054;BME280;32811;52.382;5.270;2023-03-14T03:45:07;98736.13;;;8.07;100.00
47054;BME280;32811;52.382;5.270;2023-03-14T03:47:34;98724.22;;;8.03;100.00
47054;BME280;32811;52.382;5.270;2023-03-14T03:50:00;98748.03;;;8.11;100.00
47054;BME280;32811;52.382;5.270;2023-03-14T03:52:27;98755.56;;;8.21;100.00
47054;BME280;32811;52.382;5.270;2023-03-14T03:54:54;98738.59;;;8.12;100.00
47054;BME280;32811;52.382;5.270;2023-03-14T03:57:20;98748.03;;;8.13;100.00
47054;BME280;32811;52.382;5.270;2023-03-14T03:59:47;98762.38;;;8.23;100.00
47054;BME280;32811;52.382;5.270;2023-03-14T04:02:13;98739.59;;;8.05;100.00
47054;BME280;32811;52.382;5.270;2023-03-14T04:04:40;98769.16;;;8.26;100.00
47054;BME280;32811;52.382;5.270;2023-03-14T04:07:07;98753.97;;;8.15;100.00
47054;BME280;32811;52.382;5.270;2023-03-14T04:09:34;98758.22;;;8.18;100.00
47054;BME280;32811;52.382;5.270;2023-03-14T04:12:00;98761.59;;;8.20;100.00
47054;BME280;32811;52.382;5.270;2023-03-14T04:14:27;98746.00;;;8.29;100.00
47054;BME280;32811;52.382;5.270;2023-03-14T04:16:53;98763.88;;;8.35;100.00
47054;BME280;32811;52.382;5.270;2023-03-14T04:19:20;98770.72;;;8.35;100.00
47054;BME280;32811;52.382;5.270;2023-03-14T04:21:47;98730.81;;;8.17;100.00
47054;BME280;32811;52.382;5.270;2023-03-14T04:24:14;98739.31;;;8.20;100.00
47054;BME280;32811;52.382;5.270;2023-03-14T04:26:40;98762.25;;;8.29;100.00
47054;BME280;32811;52.382;5.270;2023-03-14T04:29:07;98762.19;;;8.32;100.00
47054;BME280;32811;52.382;5.270;2023-03-14T04:31:34;98762.97;;;8.36;100.00
47054;BME280;32811;52.382;5.270;2023-03-14T04:34:00;98737.59;;;8.21;100.00
47054;BME280;32811;52.382;5.270;2023-03-14T04:36:27;98758.63;;;8.40;100.00
47054;BME280;32811;52.382;5.270;2023-03-14T04:38:54;98763.91;;;8.34;100.00
47054;BME280;32811;52.382;5.270;2023-03-14T04:41:20;98737.53;;;8.24;100.00
47054;BME280;32811;52.382;5.270;2023-03-14T04:43:47;98761.25;;;8.37;100.00
47054;BME280;32811;52.382;5.270;2023-03-14T04:46:13;98748.78;;;8.17;100.00
47054;BME280;32811;52.382;5.270;2023-03-14T04:48:40;98761.44;;;8.27;100.00
47054;BME280;32811;52.382;5.270;2023-03-14T04:51:07;98776.09;;;8.24;100.00
47054;BME280;32811;52.382;5.270;2023-03-14T04:53:34;98767.66;;;8.17;100.00
47054;BME280;32811;52.382;5.270;2023-03-14T04:56:02;98772.81;;;8.14;100.00
47054;BME280;32811;52.382;5.270;2023-03-14T04:58:29;98741.44;;;8.00;100.00
47054;BME280;32811;52.382;5.270;2023-03-14T05:00:55;98759.44;;;7.98;100.00
47054;BME280;32811;52.382;5.270;2023-03-14T05:03:22;98767.88;;;8.03;100.00
47054;BME280;32811;52.382;5.270;2023-03-14T05:05:48;98757.88;;;7.89;100.00
47054;BME280;32811;52.382;5.270;2023-03-14T05:08:15;98757.06;;;7.87;100.00
47054;BME280;32811;52.382;5.270;2023-03-14T05:10:41;98702.16;;;7.46;100.00
47054;BME280;32811;52.382;5.270;2023-03-14T05:13:08;98757.97;;;7.83;100.00
47054;BME280;32811;52.382;5.270;2023-03-14T05:15:35;98752.84;;;7.83;100.00
47054;BME280;32811;52.382;5.270;2023-03-14T05:18:01;98745.19;;;7.82;100.00
47054;BME280;32811;52.382;5.270;2023-03-14T05:20:28;98739.34;;;7.72;100.00
47054;BME280;32811;52.382;5.270;2023-03-14T05:22:54;98766.41;;;7.90;100.00
47054;BME280;32811;52.382;5.270;2023-03-14T05:25:21;98751.91;;;7.89;100.00
47054;BME280;32811;52.382;5.270;2023-03-14T05:27:48;98753.72;;;7.84;100.00
47054;BME280;32811;52.382;5.270;2023-03-14T05:30:14;98754.56;;;7.83;100.00
47054;BME280;32811;52.382;5.270;2023-03-14T05:32:41;98735.09;;;7.73;100.00
47054;BME280;32811;52.382;5.270;2023-03-14T05:35:08;98751.16;;;7.84;100.00
47054;BME280;32811;52.382;5.270;2023-03-14T05:37:34;98741.84;;;7.77;100.00
47054;BME280;32811;52.382;5.270;2023-03-14T05:40:01;98746.03;;;7.81;100.00
47054;BME280;32811;52.382;5.270;2023-03-14T05:42:28;98743.56;;;7.75;100.00
47054;BME280;32811;52.382;5.270;2023-03-14T05:44:54;98745.31;;;7.74;100.00
47054;BME280;32811;52.382;5.270;2023-03-14T05:47:21;98758.06;;;7.79;100.00
47054;BME280;32811;52.382;5.270;2023-03-14T05:49:47;98766.59;;;7.81;100.00
47054;BME280;32811;52.382;5.270;2023-03-14T05:52:14;98776.84;;;7.82;100.00
47054;BME280;32811;52.382;5.270;2023-03-14T05:54:41;98768.53;;;7.68;100.00
47054;BME280;32811;52.382;5.270;2023-03-14T05:57:08;98770.22;;;7.69;100.00
47054;BME280;32811;52.382;5.270;2023-03-14T05:59:34;98778.78;;;7.69;100.00
47054;BME280;32811;52.382;5.270;2023-03-14T06:02:01;98815.34;;;7.84;100.00
47054;BME280;32811;52.382;5.270;2023-03-14T06:04:28;98802.63;;;7.76;100.00
47054;BME280;32811;52.382;5.270;2023-03-14T06:06:54;98811.97;;;7.82;100.00
47054;BME280;32811;52.382;5.270;2023-03-14T06:09:21;98836.84;;;7.77;100.00
47054;BME280;32811;52.382;5.270;2023-03-14T06:11:49;98853.22;;;7.69;100.00
47054;BME280;32811;52.382;5.270;2023-03-14T06:14:16;98847.72;;;7.40;100.00
47054;BME280;32811;52.382;5.270;2023-03-14T06:16:43;98869.03;;;7.43;100.00
47054;BME280;32811;52.382;5.270;2023-03-14T06:19:10;98882.88;;;7.32;100.00
47054;BME280;32811;52.382;5.270;2023-03-14T06:21:38;98886.63;;;7.07;100.00
47054;BME280;32811;52.382;5.270;2023-03-14T06:24:04;98880.13;;;6.83;100.00
47054;BME280;32811;52.382;5.270;2023-03-14T06:26:31;98874.94;;;6.88;100.00
47054;BME280;32811;52.382;5.270;2023-03-14T06:28:58;98906.59;;;6.85;100.00
47054;BME280;32811;52.382;5.270;2023-03-14T06:31:30;98899.88;;;6.74;100.00
47054;BME280;32811;52.382;5.270;2023-03-14T06:33:57;98906.72;;;6.72;100.00
47054;BME280;32811;52.382;5.270;2023-03-14T06:36:23;98922.94;;;6.75;100.00
47054;BME280;32811;52.382;5.270;2023-03-14T06:38:50;98928.16;;;6.68;100.00
47054;BME280;32811;52.382;5.270;2023-03-14T06:41:17;98931.66;;;6.57;100.00
47054;BME280;32811;52.382;5.270;2023-03-14T06:43:43;98955.59;;;6.58;100.00
47054;BME280;32811;52.382;5.270;2023-03-14T06:46:10;98954.78;;;6.50;100.00
47054;BME280;32811;52.382;5.270;2023-03-14T06:48:36;98967.66;;;6.47;100.00
47054;BME280;32811;52.382;5.270;2023-03-14T06:51:03;98940.56;;;6.18;100.00
47054;BME280;32811;52.382;5.270;2023-03-14T06:53:30;98977.97;;;6.37;100.00
47054;BME280;32811;52.382;5.270;2023-03-14T06:55:56;98983.19;;;6.28;100.00
47054;BME280;32811;52.382;5.270;2023-03-14T06:58:23;99007.97;;;6.24;100.00
47054;BME280;32811;52.382;5.270;2023-03-14T07:00:49;99013.09;;;6.26;100.00
47054;BME280;32811;52.382;5.270;2023-03-14T07:03:16;98994.44;;;6.10;100.00
47054;BME280;32811;52.382;5.270;2023-03-14T07:05:42;99018.25;;;6.21;100.00
47054;BME280;32811;52.382;5.270;2023-03-14T07:08:09;98994.47;;;6.04;100.00
47054;BME280;32811;52.382;5.270;2023-03-14T07:10:36;99027.66;;;6.19;100.00
47054;BME280;32811;52.382;5.270;2023-03-14T07:13:03;99040.47;;;6.21;100.00
47054;BME280;32811;52.382;5.270;2023-03-14T07:15:30;99048.19;;;6.16;100.00
47054;BME280;32811;52.382;5.270;2023-03-14T07:17:56;99050.81;;;6.02;100.00
47054;BME280;32811;52.382;5.270;2023-03-14T07:20:23;99028.72;;;5.83;100.00
47054;BME280;32811;52.382;5.270;2023-03-14T07:22:51;99050.97;;;5.62;100.00
47054;BME280;32811;52.382;5.270;2023-03-14T07:25:18;99097.94;;;5.61;100.00
47054;BME280;32811;52.382;5.270;2023-03-14T07:27:45;99115.88;;;5.45;100.00
47054;BME280;32811;52.382;5.270;2023-03-14T07:30:20;99097.22;;;5.07;100.00
47054;BME280;32811;52.382;5.270;2023-03-14T07:32:50;99113.41;;;5.00;100.00
47054;BME280;32811;52.382;5.270;2023-03-14T07:35:18;99140.69;;;5.03;100.00
47054;BME280;32811;52.382;5.270;2023-03-14T07:37:45;99133.84;;;4.75;100.00
47054;BME280;32811;52.382;5.270;2023-03-14T07:40:12;99166.25;;;4.83;100.00
47054;BME280;32811;52.382;5.270;2023-03-14T07:42:42;99196.06;;;4.82;100.00
47054;BME280;32811;52.382;5.270;2023-03-14T07:45:11;99158.56;;;4.52;100.00
47054;BME280;32811;52.382;5.270;2023-03-14T07:47:38;99190.94;;;4.64;100.00
47054;BME280;32811;52.382;5.270;2023-03-14T07:50:05;99202.03;;;4.67;100.00
47054;BME280;32811;52.382;5.270;2023-03-14T07:52:32;99201.13;;;4.47;100.00
47054;BME280;32811;52.382;5.270;2023-03-14T07:54:59;99231.81;;;4.56;100.00
47054;BME280;32811;52.382;5.270;2023-03-14T07:57:26;99245.44;;;4.61;100.00
47054;BME280;32811;52.382;5.270;2023-03-14T07:59:52;99270.97;;;4.55;100.00
47054;BME280;32811;52.382;5.270;2023-03-14T08:02:19;99272.69;;;4.61;100.00
47054;BME280;32811;52.382;5.270;2023-03-14T08:04:49;99278.63;;;4.52;100.00
47054;BME280;32811;52.382;5.270;2023-03-14T08:07:16;99233.38;;;4.15;100.00
47054;BME280;32811;52.382;5.270;2023-03-14T08:09:42;99296.50;;;4.52;100.00
47054;BME280;32811;52.382;5.270;2023-03-14T08:12:09;99289.66;;;4.42;100.00
47054;BME280;32811;52.382;5.270;2023-03-14T08:14:36;99284.53;;;4.42;100.00
47054;BME280;32811;52.382;5.270;2023-03-14T08:17:03;99299.03;;;4.46;100.00
47054;BME280;32811;52.382;5.270;2023-03-14T08:19:29;99319.56;;;4.63;100.00
47054;BME280;32811;52.382;5.270;2023-03-14T08:21:56;99357.06;;;4.73;100.00
47054;BME280;32811;52.382;5.270;2023-03-14T08:24:23;99344.28;;;4.68;100.00
47054;BME280;32811;52.382;5.270;2023-03-14T08:26:49;99342.59;;;4.73;100.00
47054;BME280;32811;52.382;5.270;2023-03-14T08:29:16;99362.19;;;4.71;100.00
47054;BME280;32811;52.382;5.270;2023-03-14T08:34:51;99372.38;;;4.68;100.00
47054;BME280;32811;52.382;5.270;2023-03-14T08:37:17;99406.50;;;4.75;100.00
47054;BME280;32811;52.382;5.270;2023-03-14T08:39:52;99390.22;;;4.51;100.00
47054;BME280;32811;52.382;5.270;2023-03-14T08:42:25;99398.75;;;4.56;100.00
47054;BME280;32811;52.382;5.270;2023-03-14T08:44:54;99430.34;;;4.75;100.00
47054;BME280;32811;52.382;5.270;2023-03-14T08:47:39;99411.50;;;4.52;100.00
47054;BME280;32811;52.382;5.270;2023-03-14T08:50:07;99419.22;;;4.66;100.00
47054;BME280;32811;52.382;5.270;2023-03-14T08:52:35;99432.00;;;4.64;100.00
47054;BME280;32811;52.382;5.270;2023-03-14T08:55:04;99474.69;;;4.81;100.00
47054;BME280;32811;52.382;5.270;2023-03-14T08:57:31;99450.75;;;4.68;100.00
47054;BME280;32811;52.382;5.270;2023-03-14T09:00:01;99490.06;;;4.85;100.00
47054;BME280;32811;52.382;5.270;2023-03-14T09:02:27;99504.50;;;4.77;100.00
47054;BME280;32811;52.382;5.270;2023-03-14T09:04:54;99541.22;;;4.90;100.00
47054;BME280;32811;52.382;5.270;2023-03-14T09:07:24;99491.63;;;4.63;100.00
47054;BME280;32811;52.382;5.270;2023-03-14T09:09:53;99513.00;;;4.71;100.00
47054;BME280;32811;52.382;5.270;2023-03-14T09:12:20;99549.78;;;4.93;100.00
47054;BME280;32811;52.382;5.270;2023-03-14T09:14:47;99530.13;;;4.88;100.00
47054;BME280;32811;52.382;5.270;2023-03-14T09:17:13;99559.19;;;5.01;100.00
47054;BME280;32811;52.382;5.270;2023-03-14T09:19:40;99572.84;;;5.04;100.00
47054;BME280;32811;52.382;5.270;2023-03-14T09:22:07;99568.59;;;5.08;100.00
47054;BME280;32811;52.382;5.270;2023-03-14T09:24:36;99536.94;;;4.87;100.00
47054;BME280;32811;52.382;5.270;2023-03-14T09:27:03;99584.03;;;5.18;100.00
47054;BME280;32811;52.382;5.270;2023-03-14T09:29:30;99605.41;;;5.30;100.00
47054;BME280;32811;52.382;5.270;2023-03-14T09:31:57;99603.72;;;5.36;100.00
47054;BME280;32811;52.382;5.270;2023-03-14T09:34:25;99576.31;;;5.15;100.00
47054;BME280;32811;52.382;5.270;2023-03-14T09:37:13;99623.25;;;5.20;100.00
47054;BME280;32811;52.382;5.270;2023-03-14T09:39:42;99652.22;;;5.16;100.00
47054;BME280;32811;52.382;5.270;2023-03-14T09:42:14;99633.19;;;4.84;100.00
47054;BME280;32811;52.382;5.270;2023-03-14T09:45:02;99690.25;;;4.78;100.00
47054;BME280;32811;52.382;5.270;2023-03-14T09:47:28;99689.25;;;4.62;100.00
47054;BME280;32811;52.382;5.270;2023-03-14T09:49:55;99685.75;;;4.52;100.00
47054;BME280;32811;52.382;5.270;2023-03-14T09:52:26;99697.78;;;4.66;100.00
47054;BME280;32811;52.382;5.270;2023-03-14T09:54:59;99696.28;;;4.85;100.00
47054;BME280;32811;52.382;5.270;2023-03-14T09:57:28;99703.25;;;5.01;100.00
47054;BME280;32811;52.382;5.270;2023-03-14T09:59:58;99722.97;;;5.16;100.00
47054;BME280;32811;52.382;5.270;2023-03-14T10:02:33;99717.81;;;5.10;100.00
47054;BME280;32811;52.382;5.270;2023-03-14T10:05:00;99727.31;;;5.25;100.00
47054;BME280;32811;52.382;5.270;2023-03-14T10:07:32;99741.00;;;5.33;100.00
47054;BME280;32811;52.382;5.270;2023-03-14T10:10:00;99741.88;;;5.32;100.00
47054;BME280;32811;52.382;5.270;2023-03-14T10:12:34;99737.63;;;5.34;100.00
47054;BME280;32811;52.382;5.270;2023-03-14T10:15:06;99770.91;;;5.40;100.00
47054;BME280;32811;52.382;5.270;2023-03-14T10:17:46;99776.03;;;5.40;100.00
47054;BME280;32811;52.382;5.270;2023-03-14T10:20:32;99793.97;;;5.41;100.00
47054;BME280;32811;52.382;5.270;2023-03-14T10:25:43;99824.47;;;5.22;100.00
47054;BME280;32811;52.382;5.270;2023-03-14T10:28:26;99819.38;;;5.22;100.00
47054;BME280;32811;52.382;5.270;2023-03-14T10:30:55;99839.13;;;5.35;100.00
47054;BME280;32811;52.382;5.270;2023-03-14T10:33:27;99846.88;;;5.44;100.00
47054;BME280;32811;52.382;5.270;2023-03-14T10:38:28;99862.22;;;5.41;100.00
47054;BME280;32811;52.382;5.270;2023-03-14T10:40:56;99872.47;;;5.44;100.00
47054;BME280;32811;52.382;5.270;2023-03-14T10:43:32;99881.13;;;5.60;100.00
47054;BME280;32811;52.382;5.270;2023-03-14T10:46:09;99901.84;;;5.86;100.00
47054;BME280;32811;52.382;5.270;2023-03-14T10:48:39;99869.38;;;5.82;100.00
47054;BME280;32811;52.382;5.270;2023-03-14T10:51:37;99872.16;;;6.07;100.00
47054;BME280;32811;52.382;5.270;2023-03-14T10:54:20;99901.34;;;6.26;100.00
47054;BME280;32811;52.382;5.270;2023-03-14T10:57:00;99897.13;;;6.35;100.00
47054;BME280;32811;52.382;5.270;2023-03-14T10:59:43;99910.88;;;6.51;100.00
47054;BME280;32811;52.382;5.270;2023-03-14T11:02:40;99922.91;;;6.60;100.00
47054;BME280;32811;52.382;5.270;2023-03-14T11:08:38;99928.69;;;6.31;100.00
47054;BME280;32811;52.382;5.270;2023-03-14T11:11:25;99952.66;;;6.38;100.00
47054;BME280;32811;52.382;5.270;2023-03-14T11:17:00;100015.09;;;6.43;100.00
47054;BME280;32811;52.382;5.270;2023-03-14T11:31:33;100059.72;;;6.68;96.89
47054;BME280;32811;52.382;5.270;2023-03-14T11:34:12;100070.06;;;6.80;96.15
47054;BME280;32811;52.382;5.270;2023-03-14T11:36:55;100048.50;;;6.52;93.26
47054;BME280;32811;52.382;5.270;2023-03-14T11:39:26;100026.91;;;6.27;97.00
47054;BME280;32811;52.382;5.270;2023-03-14T11:41:58;100051.66;;;6.27;94.62
47054;BME280;32811;52.382;5.270;2023-03-14T11:44:39;100047.34;;;6.19;91.55
47054;BME280;32811;52.382;5.270;2023-03-14T11:50:40;100098.94;;;6.55;82.46
47054;BME280;32811;52.382;5.270;2023-03-14T11:53:48;100069.81;;;6.50;92.34
47054;BME280;32811;52.382;5.270;2023-03-14T11:56:55;100074.94;;;6.50;94.76
47054;BME280;32811;52.382;5.270;2023-03-14T12:10:19;100102.06;;;6.26;80.27
47054;BME280;32811;52.382;5.270;2023-03-14T12:12:47;100131.44;;;6.59;75.18
47054;BME280;32811;52.382;5.270;2023-03-14T12:15:21;100135.88;;;6.78;89.86
47054;BME280;32811;52.382;5.270;2023-03-14T12:17:55;100155.78;;;7.07;72.42
47054;BME280;32811;52.382;5.270;2023-03-14T12:20:25;100187.41;;;7.04;67.68
47054;BME280;32811;52.382;5.270;2023-03-14T12:22:55;100139.16;;;6.62;66.98
47054;BME280;32811;52.382;5.270;2023-03-14T12:25:26;100160.41;;;6.49;79.71
47054;BME280;32811;52.382;5.270;2023-03-14T12:30:30;100175.50;;;6.24;84.19
47054;BME280;32811;52.382;5.270;2023-03-14T12:36:01;100181.88;;;6.60;83.30
47054;BME280;32811;52.382;5.270;2023-03-14T12:39:10;100220.63;;;6.91;87.16
47054;BME280;32811;52.382;5.270;2023-03-14T12:41:51;100199.25;;;6.89;83.27
47054;BME280;32811;52.382;5.270;2023-03-14T12:47:01;100210.31;;;6.84;84.05
47054;BME280;32811;52.382;5.270;2023-03-14T12:49:49;100210.31;;;6.81;73.57
47054;BME280;32811;52.382;5.270;2023-03-14T12:52:33;100242.91;;;6.93;70.00
47054;BME280;32811;52.382;5.270;2023-03-14T13:00:41;100210.38;;;6.91;68.80
47054;BME280;32811;52.382;5.270;2023-03-14T13:03:20;100245.72;;;7.25;70.41
47054;BME280;32811;52.382;5.270;2023-03-14T13:05:57;100214.41;;;6.65;67.86
47054;BME280;32811;52.382;5.270;2023-03-14T13:08:35;100275.13;;;6.68;68.79
47054;BME280;32811;52.382;5.270;2023-03-14T13:14:44;100283.69;;;6.72;82.44
47054;BME280;32811;52.382;5.270;2023-03-14T13:17:26;100270.78;;;6.62;78.70
47054;BME280;32811;52.382;5.270;2023-03-14T13:20:12;100257.91;;;6.58;73.38
47054;BME280;32811;52.382;5.270;2023-03-14T13:22:46;100298.16;;;6.63;67.99
47054;BME280;32811;52.382;5.270;2023-03-14T13:25:13;100272.38;;;6.51;63.30
47054;BME280;32811;52.382;5.270;2023-03-14T13:27:41;100299.13;;;6.73;63.27
47054;BME280;32811;52.382;5.270;2023-03-14T13:30:15;100294.88;;;6.75;61.00
47054;BME280;32811;52.382;5.270;2023-03-14T13:32:43;100333.47;;;6.86;61.78
47054;BME280;32811;52.382;5.270;2023-03-14T13:37:42;100324.00;;;6.13;72.25
47054;BME280;32811;52.382;5.270;2023-03-14T13:40:20;100359.75;;;6.07;71.14
47054;BME280;32811;52.382;5.270;2023-03-14T13:42:47;100364.84;;;6.04;66.47
47054;BME280;32811;52.382;5.270;2023-03-14T13:45:14;100356.19;;;5.96;72.80
47054;BME280;32811;52.382;5.270;2023-03-14T13:47:40;100363.88;;;5.96;72.32
47054;BME280;32811;52.382;5.270;2023-03-14T13:50:16;100330.25;;;5.77;63.09
47054;BME280;32811;52.382;5.270;2023-03-14T13:52:43;100397.38;;;6.08;64.36
47054;BME280;32811;52.382;5.270;2023-03-14T13:55:17;100397.16;;;5.96;70.47
47054;BME280;32811;52.382;5.270;2023-03-14T13:57:49;100405.03;;;6.07;67.60
47054;BME280;32811;52.382;5.270;2023-03-14T14:00:21;100407.09;;;6.31;70.00
47054;BME280;32811;52.382;5.270;2023-03-14T14:02:50;100380.97;;;6.55;72.27
47054;BME280;32811;52.382;5.270;2023-03-14T14:05:17;100421.56;;;6.90;67.92
47054;BME280;32811;52.382;5.270;2023-03-14T14:07:44;100390.38;;;6.57;72.54
47054;BME280;32811;52.382;5.270;2023-03-14T14:10:13;100423.09;;;6.74;78.18
47054;BME280;32811;52.382;5.270;2023-03-14T14:12:48;100430.75;;;6.71;73.27
47054;BME280;32811;52.382;5.270;2023-03-14T14:15:21;100420.13;;;6.44;78.69
47054;BME280;32811;52.382;5.270;2023-03-14T14:17:52;100456.28;;;6.63;76.79
47054;BME280;32811;52.382;5.270;2023-03-14T14:20:27;100450.34;;;6.65;73.24
47054;BME280;32811;52.382;5.270;2023-03-14T14:23:04;100449.84;;;6.93;69.77